Wichita, KS

4:38 PM CDT on March 29, 2015 (GMT -0500)
21st & Tyler - Sterling Farms | | Change Station
CLOSE
Current Station
Personal Weather Station
Location: Wichita, KS
Elevation: 1367 ft
Nearby Weather Stations

Elev 1367 ft 37.73 °N, 97.45 °W | Updated 9 minutes ago

Partly Cloudy
Partly Cloudy
72.3 °F
Feels Like 77 °F
N
9.0
Wind Variable Wind from North
Gusts 16.0 mph

Today
High -- | Low -- °F
--% Chance of Precip.
Yesterday
High -- | Low -- °F
Precip. -- in
7:19 AM 7:49 PM
Waxing Gibbous, 74% visible
Pressure 30.03 in
Visibility 10.0 miles
Clouds Scattered Clouds 15000 ft
Scattered Clouds 25000 ft
Heat Index 77 °F
Dew Point 41 °F
Humidity 32%
Rainfall 0.00 in
Snow Depth Not available.
UV 5 out of 12
Pollen 9.40 out of 12
Air Quality Not available.
Flu Activity Not available.
METAR KICT 292053Z 34018G26KT 10SM SCT150 SCT250 22/M02 A3004 RMK AO2 PK WND 34035/2038 SLP168 T02221017 50002

More Conditions Fewer Conditions

Pressure 30.03 in
Visibility 10.0 miles
Clouds Scattered Clouds 15000 ft
Scattered Clouds 25000 ft
Heat Index 77 °F
Dew Point 41 °F
Humidity 32%
Rainfall 0.00 in
Snow Depth Not available.
UV 5 out of 12
Pollen 9.40 out of 12
Air Quality Not available.
Flu Activity Not available.
METAR KICT 292053Z 34018G26KT 10SM SCT150 SCT250 22/M02 A3004 RMK AO2 PK WND 34035/2038 SLP168 T02221017 50002

More Conditions Fewer Conditions

10-Day Weather Forecast

Almanac

Astronomy

Mar. 29, 2015 Rise Set
Actual Time
Civil Twilight
Nautical Twilight
Astronomical Twilight
Moon
Length of Visible Light
Length of Day
Tomorrow will be .
, % of the Moon is Illuminated

Today's Extremes

State Highs State Lows

Community

WunderPhotos

Upload Photos

1,809,355 photos uploaded!

WunderBlogs® & News

Nearby

Air Quality

  Air Quality AQ Index Pollutant
Not available.

Snow Depth

Station Depth Elevation

Earthquake Activity

City Distance Mag. Time & Date
Minimum magnitude displayed is 2.5.

Coastal Water Temperatures

Place Temperature

Stations

Nearby Weather Stations

Station Location Temp. Windchill Dew Point Humidity Wind Precip. Elev Updated Type